sensor_id;sensor_type;location;lat;lon;timestamp;temperature;humidity
45137;DHT22;30894;51.740;19.498;2022-08-11T00:00:38;10.60;71.30
45137;DHT22;30894;51.740;19.498;2022-08-11T00:03:11;10.60;71.30
45137;DHT22;30894;51.740;19.498;2022-08-11T00:05:53;10.60;71.30
45137;DHT22;30894;51.740;19.498;2022-08-11T00:08:25;10.60;71.40
45137;DHT22;30894;51.740;19.498;2022-08-11T00:10:56;10.50;71.30
45137;DHT22;30894;51.740;19.498;2022-08-11T00:13:35;10.60;71.40
45137;DHT22;30894;51.740;19.498;2022-08-11T00:16:10;10.50;71.50
45137;DHT22;30894;51.740;19.498;2022-08-11T00:18:43;10.50;71.50
45137;DHT22;30894;51.740;19.498;2022-08-11T00:21:11;10.50;71.50
45137;DHT22;30894;51.740;19.498;2022-08-11T00:24:00;10.50;71.60
45137;DHT22;30894;51.740;19.498;2022-08-11T00:26:28;10.50;71.60
45137;DHT22;30894;51.740;19.498;2022-08-11T00:28:55;10.50;71.60
45137;DHT22;30894;51.740;19.498;2022-08-11T00:31:28;10.50;71.60
45137;DHT22;30894;51.740;19.498;2022-08-11T00:33:58;10.40;71.70
45137;DHT22;30894;51.740;19.498;2022-08-11T00:36:52;10.50;71.80
45137;DHT22;30894;51.740;19.498;2022-08-11T00:39:35;10.40;71.80
45137;DHT22;30894;51.740;19.498;2022-08-11T00:51:08;10.40;72.00
45137;DHT22;30894;51.740;19.498;2022-08-11T00:54:17;10.40;72.00
45137;DHT22;30894;51.740;19.498;2022-08-11T01:00:02;10.30;72.20
45137;DHT22;30894;51.740;19.498;2022-08-11T01:08:57;10.10;72.40
45137;DHT22;30894;51.740;19.498;2022-08-11T01:12:23;10.10;72.60
45137;DHT22;30894;51.740;19.498;2022-08-11T01:29:27;9.90;72.90
45137;DHT22;30894;51.740;19.498;2022-08-11T01:38:46;9.90;72.80
45137;DHT22;30894;51.740;19.498;2022-08-11T01:41:45;9.90;72.90
45137;DHT22;30894;51.740;19.498;2022-08-11T01:50:56;9.70;73.30
45137;DHT22;30894;51.740;19.498;2022-08-11T01:53:30;9.70;73.30
45137;DHT22;30894;51.740;19.498;2022-08-11T01:56:09;9.70;73.30
45137;DHT22;30894;51.740;19.498;2022-08-11T02:02:02;9.60;73.40
45137;DHT22;30894;51.740;19.498;2022-08-11T02:05:17;9.60;73.40
45137;DHT22;30894;51.740;19.498;2022-08-11T02:08:09;9.60;73.50
45137;DHT22;30894;51.740;19.498;2022-08-11T02:10:46;9.60;73.60
45137;DHT22;30894;51.740;19.498;2022-08-11T02:13:57;9.60;73.50
45137;DHT22;30894;51.740;19.498;2022-08-11T02:22:38;9.60;73.60
45137;DHT22;30894;51.740;19.498;2022-08-11T02:32:14;9.40;73.80
45137;DHT22;30894;51.740;19.498;2022-08-11T02:35:42;9.40;73.90
45137;DHT22;30894;51.740;19.498;2022-08-11T02:38:30;9.30;74.00
45137;DHT22;30894;51.740;19.498;2022-08-11T02:41:20;9.30;74.00
45137;DHT22;30894;51.740;19.498;2022-08-11T02:44:45;9.30;74.20
45137;DHT22;30894;51.740;19.498;2022-08-11T02:50:40;9.30;74.20
45137;DHT22;30894;51.740;19.498;2022-08-11T02:59:46;9.30;73.80
45137;DHT22;30894;51.740;19.498;2022-08-11T03:05:02;9.30;73.80
45137;DHT22;30894;51.740;19.498;2022-08-11T03:11:25;9.20;74.00
45137;DHT22;30894;51.740;19.498;2022-08-11T03:17:35;9.10;74.00
45137;DHT22;30894;51.740;19.498;2022-08-11T03:23:04;9.10;74.00
45137;DHT22;30894;51.740;19.498;2022-08-11T03:25:43;9.20;74.00
45137;DHT22;30894;51.740;19.498;2022-08-11T03:31:21;9.10;74.00
45137;DHT22;30894;51.740;19.498;2022-08-11T03:34:04;9.20;74.10
45137;DHT22;30894;51.740;19.498;2022-08-11T03:45:45;9.10;74.40
45137;DHT22;30894;51.740;19.498;2022-08-11T03:49:04;9.10;74.30
45137;DHT22;30894;51.740;19.498;2022-08-11T04:09:17;9.50;73.80
45137;DHT22;30894;51.740;19.498;2022-08-11T04:30:16;9.90;73.30
45137;DHT22;30894;51.740;19.498;2022-08-11T04:42:47;11.30;71.50
45137;DHT22;30894;51.740;19.498;2022-08-11T04:48:57;12.50;69.70
45137;DHT22;30894;51.740;19.498;2022-08-11T04:56:07;13.60;67.90
45137;DHT22;30894;51.740;19.498;2022-08-11T05:11:25;16.10;64.70
45137;DHT22;30894;51.740;19.498;2022-08-11T05:14:19;16.50;64.30
45137;DHT22;30894;51.740;19.498;2022-08-11T05:17:33;16.90;63.80
45137;DHT22;30894;51.740;19.498;2022-08-11T05:20:24;17.40;63.40
45137;DHT22;30894;51.740;19.498;2022-08-11T05:23:10;17.80;62.90
45137;DHT22;30894;51.740;19.498;2022-08-11T05:25:57;18.10;62.60
45137;DHT22;30894;51.740;19.498;2022-08-11T05:28:53;18.40;62.40
45137;DHT22;30894;51.740;19.498;2022-08-11T05:31:42;18.70;62.30
45137;DHT22;30894;51.740;19.498;2022-08-11T05:34:43;19.10;62.10
45137;DHT22;30894;51.740;19.498;2022-08-11T05:37:23;19.40;61.90
45137;DHT22;30894;51.740;19.498;2022-08-11T05:42:57;20.30;62.00
45137;DHT22;30894;51.740;19.498;2022-08-11T05:45:43;20.50;60.90
45137;DHT22;30894;51.740;19.498;2022-08-11T05:48:40;20.90;60.70
45137;DHT22;30894;51.740;19.498;2022-08-11T05:51:33;21.20;60.60
45137;DHT22;30894;51.740;19.498;2022-08-11T05:54:26;21.50;60.40
45137;DHT22;30894;51.740;19.498;2022-08-11T05:57:31;22.00;60.00
45137;DHT22;30894;51.740;19.498;2022-08-11T06:00:04;22.50;59.70
45137;DHT22;30894;51.740;19.498;2022-08-11T06:02:57;22.90;59.10
45137;DHT22;30894;51.740;19.498;2022-08-11T06:05:33;23.50;58.60
45137;DHT22;30894;51.740;19.498;2022-08-11T06:08:02;24.00;58.10
45137;DHT22;30894;51.740;19.498;2022-08-11T06:10:32;24.50;57.60
45137;DHT22;30894;51.740;19.498;2022-08-11T06:13:02;25.00;57.00
45137;DHT22;30894;51.740;19.498;2022-08-11T06:15:31;25.40;56.60
45137;DHT22;30894;51.740;19.498;2022-08-11T06:18:00;25.70;56.40
45137;DHT22;30894;51.740;19.498;2022-08-11T06:20:29;26.10;56.10
45137;DHT22;30894;51.740;19.498;2022-08-11T06:23:03;26.20;56.10
45137;DHT22;30894;51.740;19.498;2022-08-11T06:25:34;26.20;56.30
45137;DHT22;30894;51.740;19.498;2022-08-11T06:28:05;26.20;56.50
45137;DHT22;30894;51.740;19.498;2022-08-11T06:30:42;26.20;56.80
45137;DHT22;30894;51.740;19.498;2022-08-11T06:33:20;26.40;57.00
45137;DHT22;30894;51.740;19.498;2022-08-11T06:36:12;26.70;57.00
45137;DHT22;30894;51.740;19.498;2022-08-11T06:41:44;26.90;56.90
45137;DHT22;30894;51.740;19.498;2022-08-11T06:44:40;27.20;56.90
45137;DHT22;30894;51.740;19.498;2022-08-11T06:47:12;27.70;56.40
45137;DHT22;30894;51.740;19.498;2022-08-11T06:49:45;28.00;56.10
45137;DHT22;30894;51.740;19.498;2022-08-11T06:52:35;28.00;56.20
45137;DHT22;30894;51.740;19.498;2022-08-11T06:58:02;28.80;55.80
45137;DHT22;30894;51.740;19.498;2022-08-11T07:00:48;28.80;55.70
45137;DHT22;30894;51.740;19.498;2022-08-11T07:03:19;28.90;55.80
45137;DHT22;30894;51.740;19.498;2022-08-11T07:06:04;29.00;55.90
45137;DHT22;30894;51.740;19.498;2022-08-11T07:08:57;29.50;55.80
45137;DHT22;30894;51.740;19.498;2022-08-11T07:12:14;30.00;55.40
45137;DHT22;30894;51.740;19.498;2022-08-11T07:15:10;30.50;54.80
45137;DHT22;30894;51.740;19.498;2022-08-11T07:17:57;31.00;54.40
45137;DHT22;30894;51.740;19.498;2022-08-11T07:20:46;31.70;53.80
45137;DHT22;30894;51.740;19.498;2022-08-11T07:23:33;32.50;53.20
45137;DHT22;30894;51.740;19.498;2022-08-11T07:26:21;33.30;52.50
45137;DHT22;30894;51.740;19.498;2022-08-11T07:29:10;33.80;52.00
45137;DHT22;30894;51.740;19.498;2022-08-11T07:31:50;34.30;52.30
45137;DHT22;30894;51.740;19.498;2022-08-11T07:34:27;34.60;51.30
45137;DHT22;30894;51.740;19.498;2022-08-11T07:37:07;34.80;51.20
45137;DHT22;30894;51.740;19.498;2022-08-11T07:39:37;35.00;51.10
45137;DHT22;30894;51.740;19.498;2022-08-11T07:42:09;35.30;50.90
45137;DHT22;30894;51.740;19.498;2022-08-11T07:44:36;35.70;50.80
45137;DHT22;30894;51.740;19.498;2022-08-11T07:47:25;36.00;50.50
45137;DHT22;30894;51.740;19.498;2022-08-11T07:50:11;36.20;50.30
45137;DHT22;30894;51.740;19.498;2022-08-11T07:52:57;36.20;50.40
45137;DHT22;30894;51.740;19.498;2022-08-11T07:55:25;36.40;50.40
45137;DHT22;30894;51.740;19.498;2022-08-11T07:57:52;36.50;50.20
45137;DHT22;30894;51.740;19.498;2022-08-11T08:00:58;36.90;50.20
45137;DHT22;30894;51.740;19.498;2022-08-11T08:03:43;37.20;49.90
45137;DHT22;30894;51.740;19.498;2022-08-11T08:06:31;37.50;49.70
45137;DHT22;30894;51.740;19.498;2022-08-11T08:09:20;37.70;49.50
45137;DHT22;30894;51.740;19.498;2022-08-11T08:12:06;37.50;49.60
45137;DHT22;30894;51.740;19.498;2022-08-11T08:14:53;37.30;49.60
45137;DHT22;30894;51.740;19.498;2022-08-11T08:17:41;37.10;49.70
45137;DHT22;30894;51.740;19.498;2022-08-11T08:20:17;37.20;49.90
45137;DHT22;30894;51.740;19.498;2022-08-11T08:22:57;37.30;49.80
45137;DHT22;30894;51.740;19.498;2022-08-11T08:25:30;37.20;49.70
45137;DHT22;30894;51.740;19.498;2022-08-11T08:27:59;37.40;49.70
45137;DHT22;30894;51.740;19.498;2022-08-11T08:30:28;37.40;49.60
45137;DHT22;30894;51.740;19.498;2022-08-11T08:35:43;37.40;49.60
45137;DHT22;30894;51.740;19.498;2022-08-11T08:38:12;37.70;49.30
45137;DHT22;30894;51.740;19.498;2022-08-11T08:40:41;38.20;49.00
45137;DHT22;30894;51.740;19.498;2022-08-11T08:43:11;38.70;48.60
45137;DHT22;30894;51.740;19.498;2022-08-11T08:45:40;39.10;48.30
45137;DHT22;30894;51.740;19.498;2022-08-11T08:48:13;39.50;47.90
45137;DHT22;30894;51.740;19.498;2022-08-11T08:50:47;39.90;47.50
45137;DHT22;30894;51.740;19.498;2022-08-11T08:53:39;40.10;47.40
45137;DHT22;30894;51.740;19.498;2022-08-11T08:56:06;40.40;47.30
45137;DHT22;30894;51.740;19.498;2022-08-11T08:58:35;40.60;47.10
45137;DHT22;30894;51.740;19.498;2022-08-11T09:01:04;40.40;47.00
45137;DHT22;30894;51.740;19.498;2022-08-11T09:03:35;40.00;47.30
45137;DHT22;30894;51.740;19.498;2022-08-11T09:06:02;39.80;47.40
45137;DHT22;30894;51.740;19.498;2022-08-11T09:08:30;39.70;47.50
45137;DHT22;30894;51.740;19.498;2022-08-11T09:10:58;39.60;47.40
45137;DHT22;30894;51.740;19.498;2022-08-11T09:13:45;39.60;47.30
45137;DHT22;30894;51.740;19.498;2022-08-11T09:16:12;39.60;47.40
45137;DHT22;30894;51.740;19.498;2022-08-11T09:18:40;39.50;47.40
45137;DHT22;30894;51.740;19.498;2022-08-11T09:21:11;39.60;47.20
45137;DHT22;30894;51.740;19.498;2022-08-11T09:23:40;39.70;47.20
45137;DHT22;30894;51.740;19.498;2022-08-11T09:26:26;40.40;46.80
45137;DHT22;30894;51.740;19.498;2022-08-11T09:29:11;40.80;46.40
45137;DHT22;30894;51.740;19.498;2022-08-11T09:31:38;41.10;46.20
45137;DHT22;30894;51.740;19.498;2022-08-11T09:34:05;40.70;46.20
45137;DHT22;30894;51.740;19.498;2022-08-11T09:36:32;39.80;46.90
45137;DHT22;30894;51.740;19.498;2022-08-11T09:39:17;38.70;47.80
45137;DHT22;30894;51.740;19.498;2022-08-11T09:42:02;38.50;48.40
45137;DHT22;30894;51.740;19.498;2022-08-11T09:44:31;38.70;48.20
45137;DHT22;30894;51.740;19.498;2022-08-11T09:47:24;38.60;48.20
45137;DHT22;30894;51.740;19.498;2022-08-11T09:49:56;38.20;48.50
45137;DHT22;30894;51.740;19.498;2022-08-11T09:52:25;38.50;48.40
45137;DHT22;30894;51.740;19.498;2022-08-11T09:54:52;39.30;47.50
45137;DHT22;30894;51.740;19.498;2022-08-11T09:57:20;38.50;47.80
45137;DHT22;30894;51.740;19.498;2022-08-11T10:00:10;37.60;48.70
45137;DHT22;30894;51.740;19.498;2022-08-11T10:02:44;38.20;48.60
45137;DHT22;30894;51.740;19.498;2022-08-11T10:05:14;38.90;47.80
45137;DHT22;30894;51.740;19.498;2022-08-11T10:08:02;39.60;46.90
45137;DHT22;30894;51.740;19.498;2022-08-11T10:10:34;39.80;46.60
45137;DHT22;30894;51.740;19.498;2022-08-11T10:13:04;40.00;46.40
45137;DHT22;30894;51.740;19.498;2022-08-11T10:15:35;39.70;46.40
45137;DHT22;30894;51.740;19.498;2022-08-11T10:18:06;39.80;46.40
45137;DHT22;30894;51.740;19.498;2022-08-11T10:20:58;40.30;46.00
45137;DHT22;30894;51.740;19.498;2022-08-11T10:23:27;40.80;45.60
45137;DHT22;30894;51.740;19.498;2022-08-11T10:26:15;40.60;45.60
45137;DHT22;30894;51.740;19.498;2022-08-11T10:29:02;39.00;46.50
45137;DHT22;30894;51.740;19.498;2022-08-11T10:31:53;37.50;47.90
45137;DHT22;30894;51.740;19.498;2022-08-11T10:34:38;36.00;49.20
45137;DHT22;30894;51.740;19.498;2022-08-11T10:37:06;35.50;50.10
45137;DHT22;30894;51.740;19.498;2022-08-11T10:39:33;36.50;49.40
45137;DHT22;30894;51.740;19.498;2022-08-11T10:42:00;37.70;48.00
45137;DHT22;30894;51.740;19.498;2022-08-11T10:44:50;38.40;47.30
45137;DHT22;30894;51.740;19.498;2022-08-11T10:47:18;39.40;46.40
45137;DHT22;30894;51.740;19.498;2022-08-11T10:50:07;40.20;45.40
45137;DHT22;30894;51.740;19.498;2022-08-11T10:52:54;40.30;45.20
45137;DHT22;30894;51.740;19.498;2022-08-11T10:55:43;40.70;45.00
45137;DHT22;30894;51.740;19.498;2022-08-11T10:58:29;41.70;44.60
45137;DHT22;30894;51.740;19.498;2022-08-11T11:01:13;42.40;44.00
45137;DHT22;30894;51.740;19.498;2022-08-11T11:03:41;42.90;43.60
45137;DHT22;30894;51.740;19.498;2022-08-11T11:09:10;43.30;43.20
45137;DHT22;30894;51.740;19.498;2022-08-11T11:14:56;39.70;45.50
45137;DHT22;30894;51.740;19.498;2022-08-11T11:17:58;37.80;47.00
45137;DHT22;30894;51.740;19.498;2022-08-11T11:20:32;37.40;48.00
45137;DHT22;30894;51.740;19.498;2022-08-11T11:23:11;37.20;48.00
45137;DHT22;30894;51.740;19.498;2022-08-11T11:37:44;42.00;43.90
45137;DHT22;30894;51.740;19.498;2022-08-11T11:40:17;42.50;43.50
45137;DHT22;30894;51.740;19.498;2022-08-11T11:42:48;42.70;43.10
45137;DHT22;30894;51.740;19.498;2022-08-11T11:45:23;43.00;43.10
45137;DHT22;30894;51.740;19.498;2022-08-11T11:47:54;43.20;43.00
45137;DHT22;30894;51.740;19.498;2022-08-11T11:50:23;43.70;42.80
45137;DHT22;30894;51.740;19.498;2022-08-11T11:52:52;44.00;42.60
45137;DHT22;30894;51.740;19.498;2022-08-11T11:55:23;43.80;42.60
45137;DHT22;30894;51.740;19.498;2022-08-11T11:57:52;43.70;42.80
45137;DHT22;30894;51.740;19.498;2022-08-11T12:00:39;43.60;42.80
45137;DHT22;30894;51.740;19.498;2022-08-11T12:03:24;43.00;43.10
45137;DHT22;30894;51.740;19.498;2022-08-11T12:05:51;42.90;43.30
45137;DHT22;30894;51.740;19.498;2022-08-11T12:08:19;43.10;43.20
45137;DHT22;30894;51.740;19.498;2022-08-11T12:11:09;42.80;43.20
45137;DHT22;30894;51.740;19.498;2022-08-11T12:13:58;42.90;43.20
45137;DHT22;30894;51.740;19.498;2022-08-11T12:16:25;43.30;43.10
45137;DHT22;30894;51.740;19.498;2022-08-11T12:18:58;43.60;42.80
45137;DHT22;30894;51.740;19.498;2022-08-11T12:21:27;44.10;42.50
45137;DHT22;30894;51.740;19.498;2022-08-11T12:23:55;44.30;42.30
45137;DHT22;30894;51.740;19.498;2022-08-11T12:26:41;44.60;42.10
45137;DHT22;30894;51.740;19.498;2022-08-11T12:29:18;44.60;42.00
45137;DHT22;30894;51.740;19.498;2022-08-11T12:31:45;43.80;42.40
45137;DHT22;30894;51.740;19.498;2022-08-11T12:34:14;42.60;42.90
45137;DHT22;30894;51.740;19.498;2022-08-11T12:36:53;40.90;44.00
45137;DHT22;30894;51.740;19.498;2022-08-11T12:39:24;40.50;44.90
45137;DHT22;30894;51.740;19.498;2022-08-11T12:42:13;41.20;44.50
45137;DHT22;30894;51.740;19.498;2022-08-11T12:44:59;42.50;43.60
45137;DHT22;30894;51.740;19.498;2022-08-11T12:47:48;42.80;43.00
45137;DHT22;30894;51.740;19.498;2022-08-11T12:50:35;41.60;43.30
45137;DHT22;30894;51.740;19.498;2022-08-11T12:53:26;40.30;44.30
45137;DHT22;30894;51.740;19.498;2022-08-11T12:55:56;40.20;44.70
45137;DHT22;30894;51.740;19.498;2022-08-11T12:58:48;40.40;44.60
45137;DHT22;30894;51.740;19.498;2022-08-11T13:01:15;41.10;44.10
45137;DHT22;30894;51.740;19.498;2022-08-11T13:04:00;41.80;43.70
45137;DHT22;30894;51.740;19.498;2022-08-11T13:06:46;41.70;43.20
45137;DHT22;30894;51.740;19.498;2022-08-11T13:09:13;40.20;43.70
45137;DHT22;30894;51.740;19.498;2022-08-11T13:11:39;38.70;44.70
45137;DHT22;30894;51.740;19.498;2022-08-11T13:14:26;37.50;45.90
45137;DHT22;30894;51.740;19.498;2022-08-11T13:16:52;36.30;47.00
45137;DHT22;30894;51.740;19.498;2022-08-11T13:19:40;35.30;47.70
45137;DHT22;30894;51.740;19.498;2022-08-11T13:22:08;34.60;48.30
45137;DHT22;30894;51.740;19.498;2022-08-11T13:24:36;34.30;48.60
45137;DHT22;30894;51.740;19.498;2022-08-11T13:27:03;35.10;48.30
45137;DHT22;30894;51.740;19.498;2022-08-11T13:29:29;36.40;47.00
45137;DHT22;30894;51.740;19.498;2022-08-11T13:31:57;36.20;46.50
45137;DHT22;30894;51.740;19.498;2022-08-11T13:34:28;35.70;46.70
45137;DHT22;30894;51.740;19.498;2022-08-11T13:36:58;35.00;47.00
45137;DHT22;30894;51.740;19.498;2022-08-11T13:39:28;34.00;47.60
45137;DHT22;30894;51.740;19.498;2022-08-11T13:41:58;33.00;48.30
45137;DHT22;30894;51.740;19.498;2022-08-11T13:44:27;32.10;49.10
45137;DHT22;30894;51.740;19.498;2022-08-11T13:46:57;31.20;49.90
45137;DHT22;30894;51.740;19.498;2022-08-11T13:49:26;30.40;50.50
45137;DHT22;30894;51.740;19.498;2022-08-11T13:51:54;29.30;51.40
45137;DHT22;30894;51.740;19.498;2022-08-11T13:54:23;27.90;52.80
45137;DHT22;30894;51.740;19.498;2022-08-11T13:56:54;26.60;54.00
45137;DHT22;30894;51.740;19.498;2022-08-11T13:59:22;25.50;55.20
45137;DHT22;30894;51.740;19.498;2022-08-11T14:01:52;24.70;56.40
45137;DHT22;30894;51.740;19.498;2022-08-11T14:04:42;24.00;57.30
45137;DHT22;30894;51.740;19.498;2022-08-11T14:07:10;23.30;58.20
45137;DHT22;30894;51.740;19.498;2022-08-11T14:09:42;22.60;58.80
45137;DHT22;30894;51.740;19.498;2022-08-11T14:12:14;22.20;59.30
45137;DHT22;30894;51.740;19.498;2022-08-11T14:15:05;21.80;59.80
45137;DHT22;30894;51.740;19.498;2022-08-11T14:17:39;21.40;60.20
45137;DHT22;30894;51.740;19.498;2022-08-11T14:20:09;21.20;60.50
45137;DHT22;30894;51.740;19.498;2022-08-11T14:22:38;21.00;60.70
45137;DHT22;30894;51.740;19.498;2022-08-11T14:25:05;20.80;60.90
45137;DHT22;30894;51.740;19.498;2022-08-11T14:27:32;20.60;61.10
45137;DHT22;30894;51.740;19.498;2022-08-11T14:29:58;20.50;61.30
45137;DHT22;30894;51.740;19.498;2022-08-11T14:32:25;20.40;61.50
45137;DHT22;30894;51.740;19.498;2022-08-11T14:34:52;20.30;61.60
45137;DHT22;30894;51.740;19.498;2022-08-11T14:37:21;20.20;61.60
45137;DHT22;30894;51.740;19.498;2022-08-11T14:39:53;20.30;61.70
45137;DHT22;30894;51.740;19.498;2022-08-11T14:42:23;20.30;61.50
45137;DHT22;30894;51.740;19.498;2022-08-11T14:45:15;20.40;61.50
45137;DHT22;30894;51.740;19.498;2022-08-11T14:48:02;20.40;61.20
45137;DHT22;30894;51.740;19.498;2022-08-11T14:50:32;20.50;61.10
45137;DHT22;30894;51.740;19.498;2022-08-11T14:53:04;20.50;61.00
45137;DHT22;30894;51.740;19.498;2022-08-11T14:55:36;20.50;60.90
45137;DHT22;30894;51.740;19.498;2022-08-11T14:58:24;20.60;60.80
45137;DHT22;30894;51.740;19.498;2022-08-11T15:00:54;20.70;60.60
45137;DHT22;30894;51.740;19.498;2022-08-11T15:03:24;20.90;60.40
45137;DHT22;30894;51.740;19.498;2022-08-11T15:05:56;21.00;60.20
45137;DHT22;30894;51.740;19.498;2022-08-11T15:08:29;21.20;60.10
45137;DHT22;30894;51.740;19.498;2022-08-11T15:11:19;21.30;59.90
45137;DHT22;30894;51.740;19.498;2022-08-11T15:14:07;21.40;59.80
45137;DHT22;30894;51.740;19.498;2022-08-11T15:16:36;21.50;59.70
45137;DHT22;30894;51.740;19.498;2022-08-11T15:19:24;21.50;59.60
45137;DHT22;30894;51.740;19.498;2022-08-11T15:21:51;21.50;60.30
45137;DHT22;30894;51.740;19.498;2022-08-11T15:24:35;21.50;59.80
45137;DHT22;30894;51.740;19.498;2022-08-11T15:27:10;21.40;59.90
45137;DHT22;30894;51.740;19.498;2022-08-11T15:29:58;21.30;60.00
45137;DHT22;30894;51.740;19.498;2022-08-11T15:32:45;21.30;60.10
45137;DHT22;30894;51.740;19.498;2022-08-11T15:35:31;21.30;60.30
45137;DHT22;30894;51.740;19.498;2022-08-11T15:38:19;21.20;60.50
45137;DHT22;30894;51.740;19.498;2022-08-11T15:40:47;21.10;60.70
45137;DHT22;30894;51.740;19.498;2022-08-11T15:43:47;21.00;60.90
45137;DHT22;30894;51.740;19.498;2022-08-11T15:46:50;21.00;61.10
45137;DHT22;30894;51.740;19.498;2022-08-11T15:49:22;20.90;61.40
45137;DHT22;30894;51.740;19.498;2022-08-11T15:52:02;20.80;61.60
45137;DHT22;30894;51.740;19.498;2022-08-11T15:54:32;20.90;61.90
45137;DHT22;30894;51.740;19.498;2022-08-11T15:57:01;21.50;61.30
45137;DHT22;30894;51.740;19.498;2022-08-11T15:59:35;22.10;60.20
45137;DHT22;30894;51.740;19.498;2022-08-11T16:02:21;22.90;59.30
45137;DHT22;30894;51.740;19.498;2022-08-11T16:05:11;23.60;58.30
45137;DHT22;30894;51.740;19.498;2022-08-11T16:07:40;24.00;57.70
45137;DHT22;30894;51.740;19.498;2022-08-11T16:10:12;24.40;57.30
45137;DHT22;30894;51.740;19.498;2022-08-11T16:12:51;24.70;57.10
45137;DHT22;30894;51.740;19.498;2022-08-11T16:15:29;24.70;57.10
45137;DHT22;30894;51.740;19.498;2022-08-11T16:18:19;24.70;57.40
45137;DHT22;30894;51.740;19.498;2022-08-11T16:20:49;24.60;57.80
45137;DHT22;30894;51.740;19.498;2022-08-11T16:23:17;24.60;58.00
45137;DHT22;30894;51.740;19.498;2022-08-11T16:25:45;24.70;57.60
45137;DHT22;30894;51.740;19.498;2022-08-11T16:28:12;24.70;58.20
45137;DHT22;30894;51.740;19.498;2022-08-11T16:30:41;24.80;58.50
45137;DHT22;30894;51.740;19.498;2022-08-11T16:33:09;24.80;58.60
45137;DHT22;30894;51.740;19.498;2022-08-11T16:35:37;24.80;58.70
45137;DHT22;30894;51.740;19.498;2022-08-11T16:38:25;24.80;59.00
45137;DHT22;30894;51.740;19.498;2022-08-11T16:41:12;24.30;59.70
45137;DHT22;30894;51.740;19.498;2022-08-11T16:43:45;23.80;60.70
45137;DHT22;30894;51.740;19.498;2022-08-11T16:46:31;23.40;61.70
45137;DHT22;30894;51.740;19.498;2022-08-11T16:49:20;22.90;62.60
45137;DHT22;30894;51.740;19.498;2022-08-11T16:51:50;22.50;63.60
45137;DHT22;30894;51.740;19.498;2022-08-11T16:54:17;22.30;64.30
45137;DHT22;30894;51.740;19.498;2022-08-11T16:56:52;22.00;64.60
45137;DHT22;30894;51.740;19.498;2022-08-11T16:59:36;21.70;65.40
45137;DHT22;30894;51.740;19.498;2022-08-11T17:02:14;21.20;66.10
45137;DHT22;30894;51.740;19.498;2022-08-11T17:05:02;20.90;66.70
45137;DHT22;30894;51.740;19.498;2022-08-11T17:07:54;20.60;67.20
45137;DHT22;30894;51.740;19.498;2022-08-11T17:10:47;20.40;67.60
45137;DHT22;30894;51.740;19.498;2022-08-11T17:13:41;20.20;67.80
45137;DHT22;30894;51.740;19.498;2022-08-11T17:16:16;20.00;68.00
45137;DHT22;30894;51.740;19.498;2022-08-11T17:18:56;19.80;68.20
45137;DHT22;30894;51.740;19.498;2022-08-11T17:21:41;19.60;68.30
45137;DHT22;30894;51.740;19.498;2022-08-11T17:24:35;19.50;68.60
45137;DHT22;30894;51.740;19.498;2022-08-11T17:27:04;19.30;68.90
45137;DHT22;30894;51.740;19.498;2022-08-11T17:29:37;19.10;69.20
45137;DHT22;30894;51.740;19.498;2022-08-11T17:32:10;18.90;69.60
45137;DHT22;30894;51.740;19.498;2022-08-11T17:35:00;18.70;69.90
45137;DHT22;30894;51.740;19.498;2022-08-11T17:37:49;18.50;70.20
45137;DHT22;30894;51.740;19.498;2022-08-11T17:40:21;18.30;70.60
45137;DHT22;30894;51.740;19.498;2022-08-11T17:42:52;18.20;70.90
45137;DHT22;30894;51.740;19.498;2022-08-11T17:45:39;18.00;71.10
45137;DHT22;30894;51.740;19.498;2022-08-11T17:48:30;17.90;71.60
45137;DHT22;30894;51.740;19.498;2022-08-11T17:51:03;17.70;71.80
45137;DHT22;30894;51.740;19.498;2022-08-11T17:53:39;17.60;72.10
45137;DHT22;30894;51.740;19.498;2022-08-11T17:56:30;17.60;72.30
45137;DHT22;30894;51.740;19.498;2022-08-11T17:59:16;17.50;72.60
45137;DHT22;30894;51.740;19.498;2022-08-11T18:02:09;17.30;72.80
45137;DHT22;30894;51.740;19.498;2022-08-11T18:04:56;17.10;73.10
45137;DHT22;30894;51.740;19.498;2022-08-11T18:07:24;17.00;73.40
45137;DHT22;30894;51.740;19.498;2022-08-11T18:10:08;16.80;73.60
45137;DHT22;30894;51.740;19.498;2022-08-11T18:12:55;16.70;73.90
45137;DHT22;30894;51.740;19.498;2022-08-11T18:15:43;16.60;74.10
45137;DHT22;30894;51.740;19.498;2022-08-11T18:18:29;16.60;74.30
45137;DHT22;30894;51.740;19.498;2022-08-11T18:21:14;16.50;74.50
45137;DHT22;30894;51.740;19.498;2022-08-11T18:24:10;16.40;74.60
45137;DHT22;30894;51.740;19.498;2022-08-11T18:27:00;16.20;74.80
45137;DHT22;30894;51.740;19.498;2022-08-11T18:29:48;16.20;74.90
45137;DHT22;30894;51.740;19.498;2022-08-11T18:32:35;16.00;75.10
45137;DHT22;30894;51.740;19.498;2022-08-11T18:35:22;16.00;75.20
45137;DHT22;30894;51.740;19.498;2022-08-11T18:38:10;15.90;75.30
45137;DHT22;30894;51.740;19.498;2022-08-11T18:40:58;15.80;75.50
45137;DHT22;30894;51.740;19.498;2022-08-11T18:43:46;15.70;75.60
45137;DHT22;30894;51.740;19.498;2022-08-11T18:46:35;15.60;75.80
45137;DHT22;30894;51.740;19.498;2022-08-11T18:49:25;15.50;76.10
45137;DHT22;30894;51.740;19.498;2022-08-11T18:52:13;15.40;76.40
45137;DHT22;30894;51.740;19.498;2022-08-11T18:55:02;15.40;76.60
45137;DHT22;30894;51.740;19.498;2022-08-11T18:57:49;15.40;76.70
45137;DHT22;30894;51.740;19.498;2022-08-11T19:00:37;15.20;76.60
45137;DHT22;30894;51.740;19.498;2022-08-11T19:03:24;15.20;76.60
45137;DHT22;30894;51.740;19.498;2022-08-11T19:06:12;15.20;76.70
45137;DHT22;30894;51.740;19.498;2022-08-11T19:08:59;15.20;76.70
45137;DHT22;30894;51.740;19.498;2022-08-11T19:11:46;15.10;76.80
45137;DHT22;30894;51.740;19.498;2022-08-11T19:14:34;15.00;77.00
45137;DHT22;30894;51.740;19.498;2022-08-11T19:17:19;15.00;77.20
45137;DHT22;30894;51.740;19.498;2022-08-11T19:20:17;14.90;77.40
45137;DHT22;30894;51.740;19.498;2022-08-11T19:23:05;14.80;77.50
45137;DHT22;30894;51.740;19.498;2022-08-11T19:25:52;14.80;77.60
45137;DHT22;30894;51.740;19.498;2022-08-11T19:28:38;14.70;77.70
45137;DHT22;30894;51.740;19.498;2022-08-11T19:31:26;14.70;77.90
45137;DHT22;30894;51.740;19.498;2022-08-11T19:34:15;14.60;78.10
45137;DHT22;30894;51.740;19.498;2022-08-11T19:37:05;14.50;78.20
45137;DHT22;30894;51.740;19.498;2022-08-11T19:39:59;14.40;78.40
45137;DHT22;30894;51.740;19.498;2022-08-11T19:42:46;14.30;78.60
45137;DHT22;30894;51.740;19.498;2022-08-11T19:45:31;14.30;78.80
45137;DHT22;30894;51.740;19.498;2022-08-11T19:48:21;14.20;78.90